sensor_id;sensor_type;location;lat;lon;timestamp;pressure;altitude;pressure_sealevel;temperature;humidity
76460;BME280;65299;46.084;18.762;2023-02-13T00:00:39;102777.53;;;0.00;73.07
76460;BME280;65299;46.084;18.762;2023-02-13T00:03:39;102771.22;;;0.03;72.90
76460;BME280;65299;46.084;18.762;2023-02-13T00:06:40;102770.41;;;0.03;72.98
76460;BME280;65299;46.084;18.762;2023-02-13T00:09:41;102763.38;;;-0.07;73.42
76460;BME280;65299;46.084;18.762;2023-02-13T00:12:41;102759.41;;;-0.11;73.04
76460;BME280;65299;46.084;18.762;2023-02-13T00:15:41;102769.13;;;-0.13;72.79
76460;BME280;65299;46.084;18.762;2023-02-13T00:18:42;102764.00;;;-0.24;73.19
76460;BME280;65299;46.084;18.762;2023-02-13T00:21:42;102763.44;;;-0.27;73.05
76460;BME280;65299;46.084;18.762;2023-02-13T00:24:43;102764.44;;;-0.19;72.95
76460;BME280;65299;46.084;18.762;2023-02-13T00:27:43;102768.72;;;-0.08;72.70
76460;BME280;65299;46.084;18.762;2023-02-13T00:30:44;102777.66;;;-0.11;72.78
76460;BME280;65299;46.084;18.762;2023-02-13T00:33:44;102781.34;;;-0.13;73.24
76460;BME280;65299;46.084;18.762;2023-02-13T00:36:45;102787.47;;;-0.24;73.51
76460;BME280;65299;46.084;18.762;2023-02-13T00:39:45;102783.75;;;-0.31;73.30
76460;BME280;65299;46.084;18.762;2023-02-13T00:42:46;102788.41;;;-0.34;73.10
76460;BME280;65299;46.084;18.762;2023-02-13T00:45:46;102782.91;;;-0.41;73.39
76460;BME280;65299;46.084;18.762;2023-02-13T00:48:46;102785.50;;;-0.41;73.35
76460;BME280;65299;46.084;18.762;2023-02-13T00:51:47;102788.03;;;-0.50;73.47
76460;BME280;65299;46.084;18.762;2023-02-13T00:54:47;102783.00;;;-0.42;73.25
76460;BME280;65299;46.084;18.762;2023-02-13T00:57:48;102779.28;;;-0.49;73.43
76460;BME280;65299;46.084;18.762;2023-02-13T01:00:49;102782.00;;;-0.51;73.71
76460;BME280;65299;46.084;18.762;2023-02-13T01:03:51;102782.63;;;-0.38;72.91
76460;BME280;65299;46.084;18.762;2023-02-13T01:06:51;102780.88;;;-0.28;72.61
76460;BME280;65299;46.084;18.762;2023-02-13T01:09:51;102769.59;;;-0.28;72.83
76460;BME280;65299;46.084;18.762;2023-02-13T01:12:52;102776.75;;;-0.30;72.44
76460;BME280;65299;46.084;18.762;2023-02-13T01:15:53;102771.31;;;-0.18;72.29
76460;BME280;65299;46.084;18.762;2023-02-13T01:18:53;102772.31;;;-0.39;72.24
76460;BME280;65299;46.084;18.762;2023-02-13T01:21:54;102778.06;;;-0.45;72.42
76460;BME280;65299;46.084;18.762;2023-02-13T01:24:54;102779.16;;;-0.48;72.65
76460;BME280;65299;46.084;18.762;2023-02-13T01:27:54;102779.88;;;-0.66;72.97
76460;BME280;65299;46.084;18.762;2023-02-13T01:30:56;102772.41;;;-0.71;73.25
76460;BME280;65299;46.084;18.762;2023-02-13T01:33:57;102770.31;;;-0.77;73.18
76460;BME280;65299;46.084;18.762;2023-02-13T01:36:58;102766.31;;;-0.81;73.27
76460;BME280;65299;46.084;18.762;2023-02-13T01:39:58;102759.47;;;-0.82;73.71
76460;BME280;65299;46.084;18.762;2023-02-13T01:42:59;102754.59;;;-0.75;73.41
76460;BME280;65299;46.084;18.762;2023-02-13T01:46:00;102754.63;;;-0.66;73.46
76460;BME280;65299;46.084;18.762;2023-02-13T01:52:10;102751.84;;;-0.44;71.76
76460;BME280;65299;46.084;18.762;2023-02-13T01:55:12;102764.84;;;-0.53;72.10
76460;BME280;65299;46.084;18.762;2023-02-13T01:58:16;102763.16;;;-0.64;72.45
76460;BME280;65299;46.084;18.762;2023-02-13T02:01:18;102759.28;;;-0.69;73.00
76460;BME280;65299;46.084;18.762;2023-02-13T02:04:28;102768.19;;;-0.72;72.67
76460;BME280;65299;46.084;18.762;2023-02-13T02:07:30;102763.78;;;-0.71;72.37
76460;BME280;65299;46.084;18.762;2023-02-13T02:10:32;102768.50;;;-0.86;73.24
76460;BME280;65299;46.084;18.762;2023-02-13T02:13:33;102773.91;;;-0.78;72.64
76460;BME280;65299;46.084;18.762;2023-02-13T02:16:33;102770.75;;;-0.81;72.59
76460;BME280;65299;46.084;18.762;2023-02-13T02:19:37;102780.69;;;-0.87;73.43
76460;BME280;65299;46.084;18.762;2023-02-13T02:26:36;102759.28;;;-0.90;72.71
76460;BME280;65299;46.084;18.762;2023-02-13T02:33:20;102770.97;;;-1.05;73.04
76460;BME280;65299;46.084;18.762;2023-02-13T02:36:55;102764.69;;;-1.03;72.77
76460;BME280;65299;46.084;18.762;2023-02-13T02:43:53;102761.06;;;-1.11;72.91
76460;BME280;65299;46.084;18.762;2023-02-13T02:47:22;102753.94;;;-1.09;72.96
76460;BME280;65299;46.084;18.762;2023-02-13T02:50:52;102756.41;;;-1.28;73.46
76460;BME280;65299;46.084;18.762;2023-02-13T02:54:12;102760.16;;;-1.21;73.45
76460;BME280;65299;46.084;18.762;2023-02-13T02:57:41;102760.69;;;-1.38;73.80
76460;BME280;65299;46.084;18.762;2023-02-13T03:01:02;102767.59;;;-1.48;74.03
76460;BME280;65299;46.084;18.762;2023-02-13T03:04:27;102773.00;;;-1.40;74.09
76460;BME280;65299;46.084;18.762;2023-02-13T03:07:48;102761.50;;;-1.27;73.78
76460;BME280;65299;46.084;18.762;2023-02-13T03:10:48;102762.50;;;-1.39;73.49
76460;BME280;65299;46.084;18.762;2023-02-13T03:14:23;102758.94;;;-1.38;73.74
76460;BME280;65299;46.084;18.762;2023-02-13T03:17:26;102755.28;;;-1.46;74.06
76460;BME280;65299;46.084;18.762;2023-02-13T03:24:16;102759.09;;;-1.50;73.69
76460;BME280;65299;46.084;18.762;2023-02-13T03:30:57;102747.97;;;-1.52;74.10
76460;BME280;65299;46.084;18.762;2023-02-13T03:34:12;102749.94;;;-1.65;74.52
76460;BME280;65299;46.084;18.762;2023-02-13T03:37:17;102751.25;;;-1.71;74.48
76460;BME280;65299;46.084;18.762;2023-02-13T03:40:50;102749.09;;;-1.66;74.42
76460;BME280;65299;46.084;18.762;2023-02-13T03:47:22;102747.25;;;-1.54;74.23
76460;BME280;65299;46.084;18.762;2023-02-13T03:50:24;102749.94;;;-1.65;74.69
76460;BME280;65299;46.084;18.762;2023-02-13T03:53:27;102751.91;;;-1.58;73.91
76460;BME280;65299;46.084;18.762;2023-02-13T03:56:32;102757.94;;;-1.57;73.88
76460;BME280;65299;46.084;18.762;2023-02-13T03:59:53;102763.50;;;-1.62;74.34
76460;BME280;65299;46.084;18.762;2023-02-13T04:03:06;102757.66;;;-1.43;73.68
76460;BME280;65299;46.084;18.762;2023-02-13T04:06:12;102752.75;;;-1.57;73.67
76460;BME280;65299;46.084;18.762;2023-02-13T04:09:14;102744.94;;;-1.57;73.72
76460;BME280;65299;46.084;18.762;2023-02-13T04:12:25;102752.44;;;-1.43;73.26
76460;BME280;65299;46.084;18.762;2023-02-13T04:15:49;102756.25;;;-1.47;73.11
76460;BME280;65299;46.084;18.762;2023-02-13T04:18:52;102750.84;;;-1.55;73.33
76460;BME280;65299;46.084;18.762;2023-02-13T04:21:56;102761.97;;;-1.64;73.48
76460;BME280;65299;46.084;18.762;2023-02-13T04:24:58;102758.66;;;-1.55;73.71
76460;BME280;65299;46.084;18.762;2023-02-13T04:27:58;102762.31;;;-1.58;72.97
76460;BME280;65299;46.084;18.762;2023-02-13T04:30:59;102759.16;;;-1.73;73.56
76460;BME280;65299;46.084;18.762;2023-02-13T04:34:00;102757.25;;;-1.71;73.95
76460;BME280;65299;46.084;18.762;2023-02-13T04:37:00;102756.25;;;-1.90;74.96
76460;BME280;65299;46.084;18.762;2023-02-13T04:40:01;102755.28;;;-1.78;74.75
76460;BME280;65299;46.084;18.762;2023-02-13T04:43:02;102763.44;;;-1.72;74.11
76460;BME280;65299;46.084;18.762;2023-02-13T04:46:02;102760.13;;;-1.85;74.71
76460;BME280;65299;46.084;18.762;2023-02-13T04:49:03;102761.09;;;-1.86;74.75
76460;BME280;65299;46.084;18.762;2023-02-13T04:52:03;102760.72;;;-1.81;74.78
76460;BME280;65299;46.084;18.762;2023-02-13T04:55:04;102767.69;;;-1.71;74.26
76460;BME280;65299;46.084;18.762;2023-02-13T04:58:05;102760.00;;;-1.72;73.91
76460;BME280;65299;46.084;18.762;2023-02-13T05:01:13;102764.16;;;-1.81;74.05
76460;BME280;65299;46.084;18.762;2023-02-13T05:04:14;102763.53;;;-1.73;73.42
76460;BME280;65299;46.084;18.762;2023-02-13T05:07:16;102761.09;;;-1.86;73.49
76460;BME280;65299;46.084;18.762;2023-02-13T05:10:17;102756.97;;;-1.99;74.01
76460;BME280;65299;46.084;18.762;2023-02-13T05:13:17;102757.03;;;-1.79;73.03
76460;BME280;65299;46.084;18.762;2023-02-13T05:16:20;102756.16;;;-2.00;74.03
76460;BME280;65299;46.084;18.762;2023-02-13T05:19:21;102754.84;;;-2.05;74.69
76460;BME280;65299;46.084;18.762;2023-02-13T05:22:21;102756.47;;;-1.93;73.88
76460;BME280;65299;46.084;18.762;2023-02-13T05:25:41;102749.28;;;-2.01;74.16
76460;BME280;65299;46.084;18.762;2023-02-13T05:28:41;102753.91;;;-2.04;73.86
76460;BME280;65299;46.084;18.762;2023-02-13T05:32:00;102748.94;;;-2.07;73.76
76460;BME280;65299;46.084;18.762;2023-02-13T05:35:00;102755.34;;;-2.22;74.04
76460;BME280;65299;46.084;18.762;2023-02-13T05:38:01;102756.16;;;-2.22;74.71
76460;BME280;65299;46.084;18.762;2023-02-13T05:41:01;102750.47;;;-2.16;73.80
76460;BME280;65299;46.084;18.762;2023-02-13T05:44:02;102756.78;;;-2.18;74.17
76460;BME280;65299;46.084;18.762;2023-02-13T05:47:03;102746.59;;;-2.21;73.41
76460;BME280;65299;46.084;18.762;2023-02-13T05:50:04;102754.88;;;-2.27;74.28
76460;BME280;65299;46.084;18.762;2023-02-13T05:53:04;102756.63;;;-2.28;73.68
76460;BME280;65299;46.084;18.762;2023-02-13T05:56:06;102754.75;;;-2.26;73.75
76460;BME280;65299;46.084;18.762;2023-02-13T05:59:06;102755.84;;;-2.28;73.56
76460;BME280;65299;46.084;18.762;2023-02-13T06:02:07;102758.06;;;-2.24;73.93
76460;BME280;65299;46.084;18.762;2023-02-13T06:05:07;102765.63;;;-2.10;73.04
76460;BME280;65299;46.084;18.762;2023-02-13T06:08:08;102763.84;;;-2.09;72.99
76460;BME280;65299;46.084;18.762;2023-02-13T06:11:09;102768.47;;;-2.02;72.55
76460;BME280;65299;46.084;18.762;2023-02-13T06:14:10;102767.97;;;-2.07;73.22
76460;BME280;65299;46.084;18.762;2023-02-13T06:17:11;102772.97;;;-2.04;73.60
76460;BME280;65299;46.084;18.762;2023-02-13T06:20:11;102773.19;;;-1.96;72.90
76460;BME280;65299;46.084;18.762;2023-02-13T06:23:12;102780.75;;;-1.93;72.82
76460;BME280;65299;46.084;18.762;2023-02-13T06:26:12;102780.63;;;-2.02;72.48
76460;BME280;65299;46.084;18.762;2023-02-13T06:29:13;102789.28;;;-2.02;72.74
76460;BME280;65299;46.084;18.762;2023-02-13T06:32:13;102796.56;;;-1.85;73.01
76460;BME280;65299;46.084;18.762;2023-02-13T06:35:14;102798.34;;;-1.74;72.75
76460;BME280;65299;46.084;18.762;2023-02-13T06:38:15;102785.91;;;-1.71;72.49
76460;BME280;65299;46.084;18.762;2023-02-13T06:41:18;102787.03;;;-1.52;71.59
76460;BME280;65299;46.084;18.762;2023-02-13T06:44:18;102790.22;;;-1.49;71.38
76460;BME280;65299;46.084;18.762;2023-02-13T06:47:19;102791.75;;;-1.46;71.87
76460;BME280;65299;46.084;18.762;2023-02-13T06:50:19;102783.06;;;-1.36;71.88
76460;BME280;65299;46.084;18.762;2023-02-13T06:53:19;102788.50;;;-1.07;71.49
76460;BME280;65299;46.084;18.762;2023-02-13T06:56:23;102789.28;;;-0.96;71.28
76460;BME280;65299;46.084;18.762;2023-02-13T06:59:25;102783.78;;;-0.81;70.59
76460;BME280;65299;46.084;18.762;2023-02-13T07:02:25;102786.16;;;-0.69;70.52
76460;BME280;65299;46.084;18.762;2023-02-13T07:05:26;102779.81;;;-0.76;71.10
76460;BME280;65299;46.084;18.762;2023-02-13T07:08:26;102780.59;;;-0.55;70.78
76460;BME280;65299;46.084;18.762;2023-02-13T07:11:27;102779.50;;;-0.32;70.50
76460;BME280;65299;46.084;18.762;2023-02-13T07:14:27;102779.66;;;-0.24;70.35
76460;BME280;65299;46.084;18.762;2023-02-13T07:17:27;102782.47;;;-0.06;70.62
76460;BME280;65299;46.084;18.762;2023-02-13T07:20:28;102784.47;;;0.21;70.27
76460;BME280;65299;46.084;18.762;2023-02-13T07:23:28;102791.66;;;0.47;69.56
76460;BME280;65299;46.084;18.762;2023-02-13T07:26:29;102788.94;;;0.49;70.22
76460;BME280;65299;46.084;18.762;2023-02-13T07:29:29;102782.59;;;0.70;69.99
76460;BME280;65299;46.084;18.762;2023-02-13T07:32:30;102784.25;;;0.81;69.95
76460;BME280;65299;46.084;18.762;2023-02-13T07:35:31;102786.31;;;0.97;70.27
76460;BME280;65299;46.084;18.762;2023-02-13T07:38:32;102798.50;;;1.25;70.19
76460;BME280;65299;46.084;18.762;2023-02-13T07:41:32;102796.44;;;1.38;70.23
76460;BME280;65299;46.084;18.762;2023-02-13T07:44:33;102798.41;;;1.73;69.72
76460;BME280;65299;46.084;18.762;2023-02-13T07:47:33;102801.13;;;1.81;70.56
76460;BME280;65299;46.084;18.762;2023-02-13T07:50:34;102807.75;;;2.02;69.42
76460;BME280;65299;46.084;18.762;2023-02-13T07:53:34;102807.81;;;2.20;69.26
76460;BME280;65299;46.084;18.762;2023-02-13T07:56:35;102801.56;;;2.66;67.51
76460;BME280;65299;46.084;18.762;2023-02-13T07:59:35;102796.63;;;2.80;67.10
76460;BME280;65299;46.084;18.762;2023-02-13T08:02:35;102794.88;;;3.06;67.88
76460;BME280;65299;46.084;18.762;2023-02-13T08:05:36;102791.88;;;3.19;68.19
76460;BME280;65299;46.084;18.762;2023-02-13T08:08:37;102785.44;;;3.39;68.37
76460;BME280;65299;46.084;18.762;2023-02-13T08:11:38;102783.31;;;3.43;68.81
76460;BME280;65299;46.084;18.762;2023-02-13T08:14:53;102782.41;;;3.52;68.88
76460;BME280;65299;46.084;18.762;2023-02-13T08:17:54;102787.34;;;3.55;68.90
76460;BME280;65299;46.084;18.762;2023-02-13T08:20:54;102797.78;;;3.72;68.50
76460;BME280;65299;46.084;18.762;2023-02-13T08:23:54;102788.66;;;3.84;67.82
76460;BME280;65299;46.084;18.762;2023-02-13T08:26:55;102792.50;;;4.06;67.79
76460;BME280;65299;46.084;18.762;2023-02-13T08:29:56;102793.38;;;4.14;67.26
76460;BME280;65299;46.084;18.762;2023-02-13T08:32:57;102800.28;;;4.23;67.38
76460;BME280;65299;46.084;18.762;2023-02-13T08:35:57;102791.97;;;4.52;66.39
76460;BME280;65299;46.084;18.762;2023-02-13T08:38:58;102797.84;;;4.38;67.20
76460;BME280;65299;46.084;18.762;2023-02-13T08:41:58;102806.41;;;4.48;66.98
76460;BME280;65299;46.084;18.762;2023-02-13T08:44:58;102805.78;;;4.54;67.28
76460;BME280;65299;46.084;18.762;2023-02-13T08:47:59;102798.59;;;4.72;67.19
76460;BME280;65299;46.084;18.762;2023-02-13T08:51:07;102800.06;;;4.83;67.31
76460;BME280;65299;46.084;18.762;2023-02-13T08:54:08;102798.25;;;5.07;67.15
76460;BME280;65299;46.084;18.762;2023-02-13T08:57:08;102795.97;;;5.13;65.84
76460;BME280;65299;46.084;18.762;2023-02-13T09:00:09;102797.94;;;5.19;65.72
76460;BME280;65299;46.084;18.762;2023-02-13T09:03:10;102802.16;;;5.36;65.50
76460;BME280;65299;46.084;18.762;2023-02-13T09:06:10;102810.72;;;5.46;65.84
76460;BME280;65299;46.084;18.762;2023-02-13T09:09:11;102816.25;;;5.75;65.03
76460;BME280;65299;46.084;18.762;2023-02-13T09:12:11;102804.06;;;5.90;64.02
76460;BME280;65299;46.084;18.762;2023-02-13T09:15:12;102812.09;;;5.88;63.63
76460;BME280;65299;46.084;18.762;2023-02-13T09:18:13;102810.13;;;5.91;63.95
76460;BME280;65299;46.084;18.762;2023-02-13T09:21:13;102807.13;;;6.02;63.86
76460;BME280;65299;46.084;18.762;2023-02-13T09:24:14;102818.44;;;6.18;63.03
76460;BME280;65299;46.084;18.762;2023-02-13T09:27:14;102805.28;;;6.10;61.85
76460;BME280;65299;46.084;18.762;2023-02-13T09:30:15;102808.50;;;6.28;61.33
76460;BME280;65299;46.084;18.762;2023-02-13T09:33:23;102802.94;;;6.46;61.85
76460;BME280;65299;46.084;18.762;2023-02-13T09:36:24;102806.31;;;6.62;61.42
76460;BME280;65299;46.084;18.762;2023-02-13T09:39:24;102803.59;;;6.70;60.96
76460;BME280;65299;46.084;18.762;2023-02-13T09:42:30;102799.63;;;6.75;60.26
76460;BME280;65299;46.084;18.762;2023-02-13T09:45:33;102800.72;;;6.80;60.34
76460;BME280;65299;46.084;18.762;2023-02-13T09:48:36;102792.22;;;6.70;60.37
76460;BME280;65299;46.084;18.762;2023-02-13T09:51:40;102796.97;;;6.97;60.03
76460;BME280;65299;46.084;18.762;2023-02-13T09:54:41;102796.81;;;7.13;59.63
76460;BME280;65299;46.084;18.762;2023-02-13T10:01:00;102799.09;;;7.02;59.52
76460;BME280;65299;46.084;18.762;2023-02-13T10:04:28;102796.41;;;7.24;58.75
76460;BME280;65299;46.084;18.762;2023-02-13T10:08:00;102786.00;;;7.23;58.83
76460;BME280;65299;46.084;18.762;2023-02-13T10:14:52;102780.66;;;7.60;57.28
76460;BME280;65299;46.084;18.762;2023-02-13T10:18:04;102785.03;;;7.82;56.41
76460;BME280;65299;46.084;18.762;2023-02-13T10:21:07;102786.41;;;7.93;56.11
76460;BME280;65299;46.084;18.762;2023-02-13T10:24:24;102781.41;;;7.69;56.28
76460;BME280;65299;46.084;18.762;2023-02-13T10:27:38;102772.78;;;8.10;55.56
76460;BME280;65299;46.084;18.762;2023-02-13T10:30:49;102769.25;;;8.03;55.86
76460;BME280;65299;46.084;18.762;2023-02-13T10:33:56;102767.47;;;8.10;55.68
76460;BME280;65299;46.084;18.762;2023-02-13T10:36:59;102764.00;;;8.24;55.15
76460;BME280;65299;46.084;18.762;2023-02-13T10:40:00;102756.63;;;8.56;54.57
76460;BME280;65299;46.084;18.762;2023-02-13T10:43:07;102763.19;;;8.39;54.83
76460;BME280;65299;46.084;18.762;2023-02-13T10:46:24;102757.69;;;8.82;53.92
76460;BME280;65299;46.084;18.762;2023-02-13T11:02:28;102746.13;;;8.90;53.72
76460;BME280;65299;46.084;18.762;2023-02-13T11:05:34;102747.03;;;8.76;54.41
76460;BME280;65299;46.084;18.762;2023-02-13T11:08:41;102742.81;;;9.09;53.05
76460;BME280;65299;46.084;18.762;2023-02-13T11:11:42;102733.75;;;8.97;54.42
76460;BME280;65299;46.084;18.762;2023-02-13T11:14:56;102732.25;;;8.88;54.38
76460;BME280;65299;46.084;18.762;2023-02-13T11:18:18;102721.28;;;9.18;53.61
76460;BME280;65299;46.084;18.762;2023-02-13T11:21:21;102720.34;;;9.33;54.21
76460;BME280;65299;46.084;18.762;2023-02-13T11:24:24;102718.75;;;9.04;53.05
76460;BME280;65299;46.084;18.762;2023-02-13T11:27:34;102725.53;;;9.47;53.39
76460;BME280;65299;46.084;18.762;2023-02-13T11:30:37;102721.75;;;9.29;53.08
76460;BME280;65299;46.084;18.762;2023-02-13T11:33:38;102729.53;;;9.30;53.41
76460;BME280;65299;46.084;18.762;2023-02-13T11:36:38;102723.88;;;9.40;53.06
76460;BME280;65299;46.084;18.762;2023-02-13T11:39:39;102722.09;;;9.53;52.62
76460;BME280;65299;46.084;18.762;2023-02-13T11:42:41;102710.00;;;9.85;51.90
76460;BME280;65299;46.084;18.762;2023-02-13T11:45:42;102705.16;;;9.48;52.86
76460;BME280;65299;46.084;18.762;2023-02-13T11:48:43;102702.72;;;9.18;53.13
76460;BME280;65299;46.084;18.762;2023-02-13T11:51:56;102694.31;;;9.43;52.51
76460;BME280;65299;46.084;18.762;2023-02-13T11:55:23;102692.50;;;9.50;52.98
76460;BME280;65299;46.084;18.762;2023-02-13T11:58:25;102700.66;;;9.48;52.85
76460;BME280;65299;46.084;18.762;2023-02-13T12:01:27;102695.41;;;9.55;51.98
76460;BME280;65299;46.084;18.762;2023-02-13T12:04:28;102689.38;;;9.80;51.47
76460;BME280;65299;46.084;18.762;2023-02-13T12:07:29;102696.31;;;9.75;51.76
76460;BME280;65299;46.084;18.762;2023-02-13T12:10:32;102682.44;;;9.79;51.51
76460;BME280;65299;46.084;18.762;2023-02-13T12:13:36;102675.69;;;9.30;52.24
76460;BME280;65299;46.084;18.762;2023-02-13T12:19:42;102680.91;;;9.57;52.11
76460;BME280;65299;46.084;18.762;2023-02-13T12:36:47;102662.19;;;9.65;50.92
76460;BME280;65299;46.084;18.762;2023-02-13T12:50:01;102650.78;;;9.17;52.59
76460;BME280;65299;46.084;18.762;2023-02-13T12:53:33;102652.09;;;9.41;51.49
76460;BME280;65299;46.084;18.762;2023-02-13T12:57:07;102651.34;;;9.13;52.50
76460;BME280;65299;46.084;18.762;2023-02-13T13:27:41;102639.56;;;9.63;51.80
76460;BME280;65299;46.084;18.762;2023-02-13T13:30:44;102635.94;;;9.77;51.87
76460;BME280;65299;46.084;18.762;2023-02-13T13:33:46;102620.47;;;9.93;51.74
76460;BME280;65299;46.084;18.762;2023-02-13T13:39:56;102622.94;;;10.01;51.75
76460;BME280;65299;46.084;18.762;2023-02-13T13:43:12;102628.28;;;10.15;51.62
76460;BME280;65299;46.084;18.762;2023-02-13T13:49:52;102613.13;;;10.09;51.47
76460;BME280;65299;46.084;18.762;2023-02-13T13:56:06;102616.72;;;9.68;51.79
76460;BME280;65299;46.084;18.762;2023-02-13T13:59:16;102610.13;;;9.51;51.88
76460;BME280;65299;46.084;18.762;2023-02-13T14:05:31;102616.13;;;9.79;51.17
76460;BME280;65299;46.084;18.762;2023-02-13T14:11:43;102621.59;;;9.58;51.61
76460;BME280;65299;46.084;18.762;2023-02-13T14:14:45;102611.03;;;9.65;51.25
76460;BME280;65299;46.084;18.762;2023-02-13T14:17:49;102602.59;;;9.48;51.22
76460;BME280;65299;46.084;18.762;2023-02-13T14:21:01;102609.78;;;9.61;51.11
76460;BME280;65299;46.084;18.762;2023-02-13T14:24:10;102613.75;;;9.37;51.08
76460;BME280;65299;46.084;18.762;2023-02-13T14:27:21;102602.94;;;9.39;51.33
76460;BME280;65299;46.084;18.762;2023-02-13T14:30:31;102601.56;;;9.49;51.35
76460;BME280;65299;46.084;18.762;2023-02-13T14:33:33;102599.91;;;9.35;51.38
76460;BME280;65299;46.084;18.762;2023-02-13T14:36:36;102593.75;;;9.28;51.64
76460;BME280;65299;46.084;18.762;2023-02-13T14:39:38;102603.19;;;9.44;51.12
76460;BME280;65299;46.084;18.762;2023-02-13T14:42:45;102604.19;;;9.36;50.87
76460;BME280;65299;46.084;18.762;2023-02-13T14:45:52;102604.66;;;9.53;51.01
76460;BME280;65299;46.084;18.762;2023-02-13T14:49:42;102600.34;;;9.45;51.27
76460;BME280;65299;46.084;18.762;2023-02-13T14:52:20;102593.16;;;9.26;51.39
76460;BME280;65299;46.084;18.762;2023-02-13T14:55:40;102601.38;;;9.44;51.59
76460;BME280;65299;46.084;18.762;2023-02-13T14:58:54;102602.00;;;9.05;52.19
76460;BME280;65299;46.084;18.762;2023-02-13T15:02:08;102596.25;;;9.36;52.22
76460;BME280;65299;46.084;18.762;2023-02-13T15:05:17;102603.59;;;9.47;51.34
76460;BME280;65299;46.084;18.762;2023-02-13T15:08:22;102592.34;;;9.32;51.63
76460;BME280;65299;46.084;18.762;2023-02-13T15:14:35;102596.81;;;9.32;51.65
76460;BME280;65299;46.084;18.762;2023-02-13T15:17:36;102600.72;;;9.36;51.88
76460;BME280;65299;46.084;18.762;2023-02-13T15:20:40;102593.78;;;8.94;53.08
76460;BME280;65299;46.084;18.762;2023-02-13T15:23:43;102588.84;;;9.25;52.57
76460;BME280;65299;46.084;18.762;2023-02-13T15:26:50;102598.28;;;9.34;52.23
76460;BME280;65299;46.084;18.762;2023-02-13T15:30:18;102598.91;;;8.95;53.41
76460;BME280;65299;46.084;18.762;2023-02-13T15:33:20;102592.22;;;8.65;54.54
76460;BME280;65299;46.084;18.762;2023-02-13T15:36:24;102591.50;;;8.84;54.06
76460;BME280;65299;46.084;18.762;2023-02-13T15:39:29;102592.38;;;8.64;54.61
76460;BME280;65299;46.084;18.762;2023-02-13T15:42:30;102593.78;;;8.60;55.07
76460;BME280;65299;46.084;18.762;2023-02-13T15:45:31;102590.97;;;8.61;55.21
76460;BME280;65299;46.084;18.762;2023-02-13T15:48:33;102590.19;;;8.67;55.02
76460;BME280;65299;46.084;18.762;2023-02-13T15:51:34;102595.28;;;8.69;55.08
76460;BME280;65299;46.084;18.762;2023-02-13T15:54:34;102599.63;;;8.83;54.71
76460;BME280;65299;46.084;18.762;2023-02-13T15:57:35;102602.97;;;8.91;54.60
76460;BME280;65299;46.084;18.762;2023-02-13T16:00:39;102598.22;;;8.87;54.94
76460;BME280;65299;46.084;18.762;2023-02-13T16:03:40;102607.19;;;8.86;55.17
76460;BME280;65299;46.084;18.762;2023-02-13T16:06:44;102607.69;;;8.68;55.60
76460;BME280;65299;46.084;18.762;2023-02-13T16:09:45;102612.75;;;8.63;55.83
76460;BME280;65299;46.084;18.762;2023-02-13T16:12:47;102611.94;;;8.63;55.71
76460;BME280;65299;46.084;18.762;2023-02-13T16:15:47;102611.59;;;8.45;55.50
76460;BME280;65299;46.084;18.762;2023-02-13T16:18:48;102616.78;;;8.31;55.75
76460;BME280;65299;46.084;18.762;2023-02-13T16:21:50;102614.53;;;8.28;55.79
76460;BME280;65299;46.084;18.762;2023-02-13T16:24:54;102618.66;;;8.38;55.67
76460;BME280;65299;46.084;18.762;2023-02-13T16:31:02;102620.53;;;8.22;55.46
76460;BME280;65299;46.084;18.762;2023-02-13T16:34:23;102617.91;;;8.22;55.63
76460;BME280;65299;46.084;18.762;2023-02-13T16:37:32;102617.59;;;8.32;55.70
76460;BME280;65299;46.084;18.762;2023-02-13T16:40:38;102623.72;;;8.32;55.64
76460;BME280;65299;46.084;18.762;2023-02-13T16:43:44;102633.19;;;8.48;55.55
76460;BME280;65299;46.084;18.762;2023-02-13T16:46:51;102627.13;;;8.26;55.96
76460;BME280;65299;46.084;18.762;2023-02-13T16:49:55;102621.63;;;8.28;55.93
76460;BME280;65299;46.084;18.762;2023-02-13T16:53:05;102624.97;;;8.37;55.48
76460;BME280;65299;46.084;18.762;2023-02-13T16:56:07;102626.16;;;8.34;54.97
76460;BME280;65299;46.084;18.762;2023-02-13T16:59:28;102625.94;;;8.14;55.32
76460;BME280;65299;46.084;18.762;2023-02-13T17:02:38;102622.97;;;8.03;55.63
76460;BME280;65299;46.084;18.762;2023-02-13T17:05:39;102634.25;;;8.11;55.39
76460;BME280;65299;46.084;18.762;2023-02-13T17:08:40;102630.78;;;8.11;55.35
76460;BME280;65299;46.084;18.762;2023-02-13T17:11:40;102622.44;;;8.07;55.55
76460;BME280;65299;46.084;18.762;2023-02-13T17:14:41;102618.53;;;8.03;55.47
76460;BME280;65299;46.084;18.762;2023-02-13T17:17:42;102623.94;;;7.95;55.83
76460;BME280;65299;46.084;18.762;2023-02-13T17:20:43;102626.94;;;7.92;55.86
76460;BME280;65299;46.084;18.762;2023-02-13T17:23:44;102630.69;;;7.98;55.93
76460;BME280;65299;46.084;18.762;2023-02-13T17:26:46;102632.72;;;8.02;56.18
76460;BME280;65299;46.084;18.762;2023-02-13T17:29:47;102638.38;;;7.78;57.02
76460;BME280;65299;46.084;18.762;2023-02-13T17:32:48;102632.31;;;7.99;56.56
76460;BME280;65299;46.084;18.762;2023-02-13T17:35:49;102624.41;;;7.84;57.19
76460;BME280;65299;46.084;18.762;2023-02-13T17:38:50;102630.09;;;7.81;57.38
76460;BME280;65299;46.084;18.762;2023-02-13T17:41:50;102619.00;;;7.92;57.08
76460;BME280;65299;46.084;18.762;2023-02-13T17:44:55;102624.44;;;8.05;56.75
76460;BME280;65299;46.084;18.762;2023-02-13T17:47:56;102632.69;;;7.96;56.77
76460;BME280;65299;46.084;18.762;2023-02-13T17:50:59;102627.84;;;7.99;56.57
76460;BME280;65299;46.084;18.762;2023-02-13T17:54:00;102623.44;;;7.85;57.00
76460;BME280;65299;46.084;18.762;2023-02-13T17:57:00;102621.22;;;7.89;56.84
76460;BME280;65299;46.084;18.762;2023-02-13T18:00:01;102621.91;;;7.76;57.10